createdAt,value
2022-12-26T00:00:37.601Z,85.53
2022-12-26T00:03:08.094Z,86.80
2022-12-26T00:05:39.456Z,77.93
2022-12-26T00:08:09.986Z,88.53
2022-12-26T00:10:40.005Z,79.18
2022-12-26T00:13:38.500Z,97.25
2022-12-26T00:15:59.960Z,92.85
2022-12-26T00:18:29.901Z,105.43
2022-12-26T00:20:59.865Z,92.15
2022-12-26T00:23:30.054Z,106.20
2022-12-26T00:26:03.961Z,100.53
2022-12-26T00:28:34.296Z,96.40
2022-12-26T00:31:11.318Z,98.28
2022-12-26T00:33:42.175Z,97.95
2022-12-26T00:38:43.844Z,111.70
2022-12-26T00:41:15.389Z,111.68
2022-12-26T00:43:45.340Z,106.88
2022-12-26T00:46:15.877Z,115.47
2022-12-26T00:48:46.157Z,129.30
2022-12-26T00:51:16.737Z,129.85
2022-12-26T00:53:47.521Z,108.72
2022-12-26T00:58:47.583Z,107.93
2022-12-26T01:01:23.904Z,130.23
2022-12-26T01:03:55.488Z,109.65
2022-12-26T01:06:25.578Z,114.18
2022-12-26T01:08:56.326Z,99.00
2022-12-26T01:11:44.109Z,112.55
2022-12-26T01:14:18.693Z,119.90
2022-12-26T01:16:49.578Z,119.72
2022-12-26T01:19:19.454Z,145.65
2022-12-26T01:21:49.218Z,136.67
2022-12-26T01:24:19.216Z,121.83
2022-12-26T01:26:49.488Z,140.98
2022-12-26T01:29:19.283Z,143.40
2022-12-26T01:31:49.303Z,136.10
2022-12-26T01:34:19.254Z,141.35
2022-12-26T01:36:49.178Z,138.55
2022-12-26T01:39:20.016Z,145.13
2022-12-26T01:44:56.358Z,123.47
2022-12-26T01:47:30.507Z,144.43
2022-12-26T01:50:00.531Z,141.68
2022-12-26T01:52:38.435Z,150.18
2022-12-26T01:55:13.020Z,163.95
2022-12-26T01:57:47.694Z,160.43
2022-12-26T02:00:18.587Z,168.10
2022-12-26T02:03:06.853Z,152.30
2022-12-26T02:05:37.182Z,153.38
2022-12-26T02:08:15.998Z,155.07
2022-12-26T02:11:05.633Z,171.55
2022-12-26T02:13:39.273Z,154.60
2022-12-26T02:16:11.964Z,161.48
2022-12-26T02:18:41.952Z,173.05
2022-12-26T02:21:47.011Z,182.40
2022-12-26T02:24:54.957Z,195.15
2022-12-26T02:27:48.945Z,202.32
2022-12-26T02:30:44.133Z,198.85
2022-12-26T02:33:38.574Z,173.10
2022-12-26T02:36:38.399Z,176.38
2022-12-26T02:39:47.178Z,185.90
2022-12-26T02:42:43.561Z,196.15
2022-12-26T02:46:10.242Z,202.55
2022-12-26T02:49:00.283Z,215.95
2022-12-26T02:51:59.785Z,205.63
2022-12-26T02:54:59.944Z,199.70
2022-12-26T02:57:51.204Z,223.55
2022-12-26T03:00:40.243Z,211.93
2022-12-26T03:03:30.608Z,201.50
2022-12-26T03:06:40.642Z,200.18
2022-12-26T03:09:30.941Z,190.13
2022-12-26T03:12:20.957Z,199.80
2022-12-26T03:15:00.098Z,204.35
2022-12-26T03:17:37.991Z,181.02
2022-12-26T03:20:14.753Z,201.82
2022-12-26T03:23:07.514Z,242.93
2022-12-26T03:26:01.945Z,161.77
2022-12-26T03:28:32.277Z,153.68
2022-12-26T03:31:07.812Z,158.85
2022-12-26T03:34:02.111Z,155.25
2022-12-26T03:36:52.528Z,133.18
2022-12-26T03:40:12.549Z,112.72
2022-12-26T03:43:12.849Z,121.77
2022-12-26T03:46:32.939Z,120.90
2022-12-26T03:49:43.248Z,124.07
2022-12-26T03:52:53.315Z,136.35
2022-12-26T03:56:14.154Z,140.80
2022-12-26T03:59:03.745Z,127.47
2022-12-26T04:01:54.131Z,158.73
2022-12-26T04:04:44.130Z,121.70
2022-12-26T04:07:34.496Z,126.80
2022-12-26T04:10:24.461Z,116.75
2022-12-26T04:13:14.869Z,125.28
2022-12-26T04:16:04.865Z,121.53
2022-12-26T04:19:09.528Z,120.28
2022-12-26T04:22:05.270Z,131.07
2022-12-26T04:24:56.116Z,143.02
2022-12-26T04:27:45.659Z,137.48
2022-12-26T04:30:25.958Z,125.22
2022-12-26T04:33:16.070Z,133.32
2022-12-26T04:36:06.301Z,143.48
2022-12-26T04:38:56.371Z,139.65
2022-12-26T04:41:46.680Z,161.90
2022-12-26T04:44:18.849Z,136.70
2022-12-26T04:46:51.071Z,142.48
2022-12-26T04:49:37.128Z,142.00
2022-12-26T04:52:12.138Z,131.77
2022-12-26T04:54:42.644Z,127.07
2022-12-26T06:05:28.665Z,99.07
2022-12-26T06:07:58.517Z,94.53
2022-12-26T06:10:31.237Z,104.80
2022-12-26T06:13:03.276Z,128.20
2022-12-26T06:15:33.387Z,116.22
2022-12-26T06:18:03.317Z,94.90
2022-12-26T06:20:34.449Z,81.72
2022-12-26T06:23:10.501Z,79.70
2022-12-26T06:25:40.592Z,87.78
2022-12-26T06:28:10.738Z,84.00
2022-12-26T06:30:40.785Z,87.05
2022-12-26T06:33:10.595Z,87.22
2022-12-26T06:35:40.563Z,84.32
2022-12-26T06:38:10.631Z,104.50
2022-12-26T06:40:45.397Z,111.68
2022-12-26T06:43:15.272Z,88.43
2022-12-26T06:45:45.137Z,103.43
2022-12-26T06:48:15.107Z,104.88
2022-12-26T06:50:45.160Z,86.30
2022-12-26T06:53:15.077Z,82.43
2022-12-26T06:55:45.062Z,79.13
2022-12-26T06:58:15.184Z,292.35
2022-12-26T07:00:45.323Z,538.58
2022-12-26T07:03:15.587Z,140.15
2022-12-26T07:05:45.588Z,270.20
2022-12-26T07:08:15.666Z,135.18
2022-12-26T07:10:45.844Z,186.88
2022-12-26T07:13:16.743Z,59.45
2022-12-26T07:15:46.791Z,69.13
2022-12-26T07:18:16.644Z,54.42
2022-12-26T07:20:46.880Z,32.55
2022-12-26T07:23:17.679Z,39.05
2022-12-26T07:25:50.621Z,43.53
2022-12-26T07:28:20.691Z,56.40
2022-12-26T07:30:52.107Z,33.92
2022-12-26T07:33:22.474Z,53.63
2022-12-26T07:38:22.189Z,40.45
2022-12-26T07:40:52.315Z,38.60
2022-12-26T07:43:22.165Z,36.70
2022-12-26T07:45:52.180Z,38.30
2022-12-26T07:48:22.153Z,32.03
2022-12-26T07:50:53.197Z,36.10
2022-12-26T07:53:23.121Z,33.95
2022-12-26T07:55:53.316Z,34.70
2022-12-26T07:58:23.255Z,37.22
2022-12-26T08:00:53.409Z,33.30
2022-12-26T08:03:23.748Z,37.72
2022-12-26T08:05:54.657Z,46.58
2022-12-26T08:08:30.210Z,46.10
2022-12-26T08:11:09.521Z,37.25
2022-12-26T08:13:39.675Z,39.58
2022-12-26T08:16:11.164Z,59.47
2022-12-26T08:18:41.273Z,40.65
2022-12-26T08:21:11.336Z,42.05
2022-12-26T08:23:41.710Z,48.80
2022-12-26T08:26:14.718Z,54.78
2022-12-26T08:28:44.633Z,37.35
2022-12-26T08:31:16.158Z,94.97
2022-12-26T08:33:46.117Z,192.52
2022-12-26T08:36:18.871Z,80.05
2022-12-26T08:38:49.244Z,86.45
2022-12-26T08:44:25.766Z,68.97
2022-12-26T08:46:43.837Z,45.15
2022-12-26T08:49:14.378Z,53.10
2022-12-26T08:51:44.479Z,54.50
2022-12-26T08:54:14.500Z,48.92
2022-12-26T08:56:44.566Z,42.85
2022-12-26T08:59:14.904Z,37.90
2022-12-26T09:01:45.776Z,44.55
2022-12-26T09:04:16.728Z,41.17
2022-12-26T09:06:46.728Z,34.53
2022-12-26T09:09:16.874Z,40.20
2022-12-26T09:11:47.270Z,36.53
2022-12-26T09:16:50.991Z,42.08
2022-12-26T09:19:22.557Z,41.55
2022-12-26T09:22:13.343Z,37.28
2022-12-26T09:24:43.489Z,50.00
2022-12-26T09:27:13.607Z,50.80
2022-12-26T09:29:43.641Z,41.00
2022-12-26T09:32:13.508Z,39.95
2022-12-26T09:34:43.580Z,44.40
2022-12-26T09:37:13.540Z,45.70
2022-12-26T09:39:43.455Z,43.15
2022-12-26T09:42:46.272Z,31.77
2022-12-26T09:45:25.108Z,46.05
2022-12-26T09:48:13.757Z,37.60
2022-12-26T09:50:44.144Z,46.47
2022-12-26T09:56:08.599Z,50.17
2022-12-26T09:59:01.831Z,36.20
2022-12-26T10:01:36.536Z,32.38
2022-12-26T10:04:30.378Z,53.45
2022-12-26T10:07:23.796Z,43.95
2022-12-26T10:10:14.087Z,39.92
2022-12-26T10:13:13.161Z,41.03
2022-12-26T10:15:53.264Z,49.35
2022-12-26T10:18:48.187Z,91.25
2022-12-26T10:21:45.035Z,92.68
2022-12-26T10:24:23.314Z,43.20
2022-12-26T10:27:03.991Z,47.30
2022-12-26T10:29:42.162Z,49.78
2022-12-26T10:32:27.557Z,51.00
2022-12-26T10:34:58.179Z,54.05
2022-12-26T10:37:33.336Z,62.15
2022-12-26T10:40:39.993Z,49.90
2022-12-26T10:43:32.657Z,46.85
2022-12-26T10:46:30.771Z,73.28
2022-12-26T10:49:01.742Z,61.03
2022-12-26T10:51:32.412Z,70.65
2022-12-26T10:54:02.396Z,56.60
2022-12-26T10:56:35.422Z,62.60
2022-12-26T10:59:07.167Z,99.78
2022-12-26T11:01:41.171Z,78.80
2022-12-26T11:04:53.271Z,67.93
2022-12-26T11:07:15.200Z,64.22
2022-12-26T11:09:47.744Z,58.63
2022-12-26T11:12:41.248Z,59.38
2022-12-26T11:15:36.410Z,55.67
2022-12-26T11:18:32.415Z,68.03
2022-12-26T11:21:23.118Z,79.55
2022-12-26T11:26:32.226Z,75.55
2022-12-26T11:29:15.614Z,68.60
2022-12-26T11:31:59.825Z,62.55
2022-12-26T11:34:38.598Z,83.55
2022-12-26T11:37:21.010Z,65.82
2022-12-26T11:39:54.393Z,60.92
2022-12-26T11:42:26.881Z,100.13
2022-12-26T11:44:59.639Z,87.35
2022-12-26T11:47:31.562Z,85.00
2022-12-26T11:50:12.253Z,61.45
2022-12-26T11:55:34.446Z,86.55
2022-12-26T11:58:22.627Z,101.25
2022-12-26T12:01:14.580Z,128.70
2022-12-26T12:03:52.471Z,132.40
2022-12-26T12:06:45.748Z,106.80
2022-12-26T12:09:31.646Z,118.20
2022-12-26T12:12:25.142Z,108.47
2022-12-26T12:15:25.711Z,102.07
2022-12-26T12:18:16.090Z,87.30
2022-12-26T12:21:10.271Z,102.85
2022-12-26T12:23:57.830Z,87.57
2022-12-26T12:27:04.714Z,99.88
2022-12-26T12:29:55.153Z,99.68
2022-12-26T12:32:51.999Z,103.33
2022-12-26T12:35:50.081Z,87.10
2022-12-26T12:38:43.981Z,92.72
2022-12-26T12:41:39.934Z,81.07
2022-12-26T12:44:34.295Z,87.30
2022-12-26T12:47:37.403Z,90.70
2022-12-26T12:50:37.261Z,84.60
2022-12-26T12:53:23.666Z,75.57
2022-12-26T12:56:19.104Z,77.68
2022-12-26T12:59:07.841Z,84.95
2022-12-26T13:01:45.882Z,106.30
2022-12-26T13:04:31.489Z,115.43
2022-12-26T13:07:09.229Z,106.25
2022-12-26T13:09:50.168Z,99.70
2022-12-26T13:12:26.355Z,102.07
2022-12-26T13:15:02.652Z,95.80
2022-12-26T13:17:45.849Z,82.07
2022-12-26T13:20:24.681Z,106.57
2022-12-26T13:23:23.468Z,94.20
2022-12-26T13:26:11.061Z,94.47
2022-12-26T13:28:56.698Z,74.13
2022-12-26T13:31:27.006Z,81.07
2022-12-26T13:33:57.856Z,86.55
2022-12-26T13:36:45.653Z,82.00
2022-12-26T13:39:36.122Z,86.43
2022-12-26T13:42:39.950Z,80.13
2022-12-26T13:45:40.641Z,73.95
2022-12-26T13:48:41.078Z,71.85
2022-12-26T13:51:40.921Z,95.55
2022-12-26T13:54:15.322Z,91.07
2022-12-26T13:57:18.489Z,84.72
2022-12-26T14:00:11.510Z,79.75
2022-12-26T14:03:20.595Z,71.97
2022-12-26T14:06:14.169Z,73.35
2022-12-26T14:09:01.993Z,86.05
2022-12-26T14:11:51.428Z,83.57
2022-12-26T14:14:42.409Z,90.65
2022-12-26T14:17:43.725Z,94.53
2022-12-26T14:20:42.690Z,93.20
2022-12-26T14:23:47.397Z,84.70
2022-12-26T14:26:49.073Z,83.18
2022-12-26T14:29:42.196Z,92.05
2022-12-26T14:32:31.059Z,98.38
2022-12-26T14:35:34.066Z,104.30
2022-12-26T14:38:24.872Z,111.22
2022-12-26T14:43:42.711Z,99.10
2022-12-26T14:46:44.625Z,96.65
2022-12-26T14:49:38.589Z,110.35
2022-12-26T14:52:35.189Z,110.50
2022-12-26T14:55:34.831Z,102.50
2022-12-26T14:58:35.410Z,111.57
2022-12-26T15:01:44.382Z,129.30
2022-12-26T15:04:39.023Z,111.68
2022-12-26T15:07:45.503Z,106.63
2022-12-26T15:10:45.997Z,125.93
2022-12-26T15:13:45.120Z,106.20
2022-12-26T15:16:41.638Z,100.78
2022-12-26T15:19:36.260Z,91.65
2022-12-26T15:22:36.910Z,92.10
2022-12-26T15:25:36.890Z,101.90
2022-12-26T15:28:37.117Z,108.00
2022-12-26T15:31:29.043Z,100.85
2022-12-26T15:34:37.266Z,117.82
2022-12-26T15:37:30.136Z,109.13
2022-12-26T15:40:26.790Z,115.78
2022-12-26T15:43:27.766Z,104.60
2022-12-26T15:46:20.979Z,124.47
2022-12-26T15:49:28.108Z,119.32
2022-12-26T15:52:28.594Z,116.18
2022-12-26T15:55:28.845Z,132.10
2022-12-26T15:58:08.287Z,126.85
2022-12-26T16:00:49.799Z,134.65
2022-12-26T16:03:46.789Z,124.93
2022-12-26T16:06:48.001Z,138.98
2022-12-26T16:09:46.295Z,134.13
2022-12-26T16:12:42.424Z,118.65
2022-12-26T16:15:20.472Z,127.85
2022-12-26T16:17:50.715Z,115.43
2022-12-26T16:20:49.468Z,141.68
2022-12-26T16:23:24.317Z,106.75
2022-12-26T16:25:57.476Z,110.70
2022-12-26T16:28:31.305Z,115.35
2022-12-26T16:31:02.560Z,112.13
2022-12-26T16:33:36.860Z,102.93
2022-12-26T16:36:07.033Z,108.82
2022-12-26T16:38:37.151Z,105.97
2022-12-26T16:41:23.827Z,90.57
2022-12-26T16:43:55.880Z,109.95
2022-12-26T16:46:31.437Z,115.28
2022-12-26T16:49:03.600Z,110.18
2022-12-26T16:51:46.938Z,113.47
2022-12-26T16:54:41.275Z,132.77
2022-12-26T16:57:20.615Z,135.50
2022-12-26T17:00:03.440Z,140.90
2022-12-26T17:02:37.441Z,147.18
2022-12-26T17:05:20.285Z,160.05
2022-12-26T17:07:53.642Z,139.98
2022-12-26T17:10:28.077Z,142.68
2022-12-26T17:13:01.940Z,125.47
2022-12-26T17:15:35.766Z,121.75
2022-12-26T17:18:43.545Z,123.57
2022-12-26T17:21:34.641Z,115.10
2022-12-26T17:24:28.098Z,122.82
2022-12-26T17:27:20.188Z,112.88
2022-12-26T17:29:56.519Z,117.43
2022-12-26T17:32:46.828Z,117.80
2022-12-26T17:35:28.382Z,122.55
2022-12-26T17:38:03.070Z,123.80
2022-12-26T17:40:37.958Z,118.35
2022-12-26T17:43:22.451Z,108.63
2022-12-26T17:45:52.676Z,109.85
2022-12-26T17:48:22.582Z,121.10
2022-12-26T17:50:58.642Z,124.07
2022-12-26T17:53:33.612Z,104.80
2022-12-26T17:56:08.468Z,112.72
2022-12-26T17:58:38.395Z,114.15
2022-12-26T18:01:08.441Z,112.40
2022-12-26T18:03:38.641Z,115.82
2022-12-26T18:06:09.445Z,103.75
2022-12-26T18:08:43.304Z,114.35
2022-12-26T18:11:16.087Z,108.18
2022-12-26T18:13:46.512Z,105.13
2022-12-26T18:16:20.833Z,115.65
2022-12-26T18:18:51.276Z,114.53
2022-12-26T18:21:21.278Z,113.57
2022-12-26T18:23:51.094Z,124.78
2022-12-26T18:26:27.152Z,117.32
2022-12-26T18:28:57.613Z,123.20
2022-12-26T18:31:29.632Z,132.02
2022-12-26T18:34:00.007Z,130.27
2022-12-26T18:36:36.159Z,119.00
2022-12-26T18:39:07.756Z,114.30
2022-12-26T18:41:38.527Z,121.43
2022-12-26T18:46:37.830Z,111.85
2022-12-26T18:49:07.789Z,107.80
2022-12-26T18:51:41.019Z,112.57
2022-12-26T18:54:10.973Z,108.68
2022-12-26T18:59:13.585Z,94.13
2022-12-26T19:01:43.537Z,115.25
2022-12-26T19:04:17.175Z,97.53
2022-12-26T19:06:47.166Z,97.75
2022-12-26T19:09:18.478Z,99.50
2022-12-26T19:11:48.318Z,96.53
2022-12-26T19:14:24.559Z,105.03
2022-12-26T19:16:54.489Z,101.72
2022-12-26T19:19:28.316Z,101.00
2022-12-26T19:21:58.992Z,101.45
2022-12-26T19:24:29.133Z,106.10
2022-12-26T19:26:59.077Z,118.10
2022-12-26T19:29:29.113Z,101.60
2022-12-26T19:31:59.161Z,104.47
2022-12-26T19:34:30.641Z,96.20
2022-12-26T19:37:00.720Z,96.10
2022-12-26T19:39:31.740Z,98.35
2022-12-26T19:42:01.858Z,104.90
2022-12-26T19:44:33.365Z,89.25
2022-12-26T19:47:12.333Z,97.47
2022-12-26T19:49:43.671Z,89.72
2022-12-26T19:54:43.673Z,85.50
2022-12-26T19:57:13.564Z,97.65
2022-12-26T19:59:43.639Z,84.03
2022-12-26T20:02:15.520Z,97.80
2022-12-26T20:04:45.928Z,92.80
2022-12-26T20:07:15.830Z,93.97
2022-12-26T20:09:46.022Z,111.05
2022-12-26T20:12:16.113Z,99.72
2022-12-26T20:14:46.081Z,107.35
2022-12-26T20:17:16.073Z,101.50
2022-12-26T20:19:46.197Z,107.78
2022-12-26T20:22:16.381Z,108.82
2022-12-26T20:24:48.494Z,104.10
2022-12-26T20:27:19.465Z,114.78
2022-12-26T20:29:49.417Z,113.03
2022-12-26T20:32:19.488Z,107.40
2022-12-26T20:34:49.454Z,110.82
2022-12-26T20:37:20.444Z,116.63
2022-12-26T20:39:50.397Z,119.85
2022-12-26T20:42:21.218Z,113.78
2022-12-26T20:47:20.596Z,105.97
2022-12-26T20:49:50.483Z,108.60
2022-12-26T20:52:20.886Z,99.87
2022-12-26T20:54:50.797Z,97.85
2022-12-26T20:57:20.749Z,96.82
2022-12-26T20:59:50.925Z,96.70
2022-12-26T21:02:21.061Z,101.18
2022-12-26T21:04:51.452Z,84.80
2022-12-26T21:07:21.411Z,103.15
2022-12-26T21:09:51.253Z,95.80
2022-12-26T21:12:21.106Z,85.90
2022-12-26T21:14:51.117Z,90.93
2022-12-26T21:17:21.054Z,90.65
2022-12-26T21:19:51.067Z,90.93
2022-12-26T21:22:21.404Z,89.15
2022-12-26T21:24:51.368Z,85.95
2022-12-26T21:27:21.308Z,87.50
2022-12-26T21:29:51.335Z,88.78
2022-12-26T21:32:21.266Z,102.68
2022-12-26T21:34:51.382Z,90.97
2022-12-26T21:37:38.023Z,102.45
2022-12-26T21:40:08.597Z,100.68
2022-12-26T21:42:38.918Z,100.03
2022-12-26T21:45:09.907Z,92.95
2022-12-26T21:47:39.853Z,95.85
2022-12-26T21:50:10.166Z,89.72
2022-12-26T21:52:40.136Z,82.75
2022-12-26T21:55:29.205Z,86.45
2022-12-26T21:58:01.624Z,79.00
2022-12-26T22:00:32.417Z,87.97
2022-12-26T22:05:49.748Z,89.82
2022-12-26T22:08:19.816Z,76.68
2022-12-26T22:11:00.162Z,78.97
2022-12-26T22:13:30.615Z,86.55
2022-12-26T22:16:09.505Z,83.10
2022-12-26T22:18:46.988Z,73.70
2022-12-26T22:21:22.715Z,86.43
2022-12-26T22:23:53.860Z,91.82
2022-12-26T22:26:25.921Z,91.50
2022-12-26T22:28:56.422Z,77.07
2022-12-26T22:31:30.291Z,81.07
2022-12-26T22:34:05.780Z,79.93
2022-12-26T22:36:36.769Z,76.35
2022-12-26T22:39:07.405Z,82.07
2022-12-26T22:41:37.435Z,74.50
2022-12-26T22:44:07.633Z,78.22
2022-12-26T22:46:39.012Z,76.10
2022-12-26T22:49:08.954Z,84.47
2022-12-26T22:51:38.896Z,76.63
2022-12-26T22:54:08.906Z,81.53
2022-12-26T22:56:38.848Z,73.85
2022-12-26T22:59:08.779Z,86.90
2022-12-26T23:01:38.923Z,76.38
2022-12-26T23:04:09.263Z,80.50
2022-12-26T23:06:39.920Z,80.45
2022-12-26T23:09:15.854Z,82.57
2022-12-26T23:12:05.709Z,76.95
2022-12-26T23:14:36.124Z,81.07
2022-12-26T23:17:12.925Z,91.53
2022-12-26T23:20:04.187Z,97.70
2022-12-26T23:22:34.876Z,81.95
2022-12-26T23:25:05.019Z,92.82
2022-12-26T23:27:44.747Z,88.63
2022-12-26T23:30:23.476Z,91.20
2022-12-26T23:32:55.475Z,95.95
2022-12-26T23:35:26.278Z,96.72
2022-12-26T23:40:26.069Z,97.50
2022-12-26T23:42:56.056Z,89.63
2022-12-26T23:45:25.933Z,85.28
2022-12-26T23:47:56.470Z,93.17
2022-12-26T23:50:26.476Z,85.55
2022-12-26T23:52:56.513Z,97.80
2022-12-26T23:55:26.459Z,94.53
2022-12-26T23:57:58.809Z,100.87
